createdAt,value
2023-03-18T00:01:16.765Z,59.17
2023-03-18T00:03:43.707Z,57.00
2023-03-18T00:06:21.995Z,59.46
2023-03-18T00:08:49.984Z,52.25
2023-03-18T00:11:18.708Z,54.97
2023-03-18T00:13:46.668Z,57.43
2023-03-18T00:16:14.019Z,52.24
2023-03-18T00:18:42.446Z,63.73
2023-03-18T00:21:10.331Z,58.62
2023-03-18T00:23:37.288Z,56.28
2023-03-18T00:26:04.932Z,52.70
2023-03-18T00:28:32.685Z,58.56
2023-03-18T00:31:09.627Z,45.52
2023-03-18T00:33:40.128Z,46.12
2023-03-18T00:36:11.271Z,43.52
2023-03-18T00:38:38.049Z,42.77
2023-03-18T00:41:12.067Z,40.93
2023-03-18T00:43:46.955Z,44.44
2023-03-18T00:46:18.985Z,45.59
2023-03-18T00:48:46.467Z,54.39
2023-03-18T00:51:16.989Z,57.46
2023-03-18T00:53:46.568Z,56.25
2023-03-18T00:56:14.322Z,58.14
2023-03-18T00:58:42.218Z,56.15
2023-03-18T01:01:09.827Z,56.78
2023-03-18T01:03:36.700Z,57.28
2023-03-18T01:06:04.306Z,63.97
2023-03-18T01:08:32.001Z,60.99
2023-03-18T01:10:58.748Z,61.78
2023-03-18T01:13:26.585Z,56.43
2023-03-18T01:15:54.692Z,57.52
2023-03-18T01:18:23.603Z,58.52
2023-03-18T01:20:51.400Z,56.23
2023-03-18T01:23:20.741Z,56.65
2023-03-18T01:25:47.709Z,59.04
2023-03-18T01:28:20.775Z,58.42
2023-03-18T01:30:47.839Z,57.24
2023-03-18T01:33:18.263Z,54.63
2023-03-18T01:35:46.979Z,60.77
2023-03-18T01:38:16.380Z,60.17
2023-03-18T01:40:45.252Z,57.18
2023-03-18T01:43:19.628Z,55.58
2023-03-18T01:45:53.526Z,58.34
2023-03-18T01:48:23.396Z,57.47
2023-03-18T01:51:00.339Z,58.96
2023-03-18T01:53:32.001Z,56.45
2023-03-18T01:56:01.316Z,60.38
2023-03-18T01:58:34.242Z,59.93
2023-03-18T02:01:06.898Z,58.60
2023-03-18T02:03:34.692Z,60.28
2023-03-18T02:06:01.655Z,56.15
2023-03-18T02:08:29.045Z,56.53
2023-03-18T02:10:56.938Z,57.58
2023-03-18T02:13:24.900Z,58.38
2023-03-18T02:16:01.852Z,58.23
2023-03-18T02:18:42.000Z,60.44
2023-03-18T02:21:40.623Z,56.68
2023-03-18T02:24:13.925Z,51.61
2023-03-18T02:27:01.459Z,55.92
2023-03-18T02:29:37.297Z,57.51
2023-03-18T02:32:09.793Z,59.02
2023-03-18T02:34:38.701Z,68.87
2023-03-18T02:37:08.022Z,62.70
2023-03-18T02:39:37.481Z,61.85
2023-03-18T02:42:05.141Z,59.98
2023-03-18T02:44:33.293Z,62.33
2023-03-18T02:47:27.355Z,67.91
2023-03-18T02:49:54.762Z,67.05
2023-03-18T02:52:22.220Z,67.03
2023-03-18T02:54:48.999Z,62.24
2023-03-18T02:57:15.779Z,61.64
2023-03-18T02:59:46.020Z,61.25
2023-03-18T03:02:13.581Z,66.17
2023-03-18T03:04:40.438Z,67.01
2023-03-18T03:07:07.761Z,68.96
2023-03-18T03:09:39.043Z,63.77
2023-03-18T03:12:07.897Z,63.73
2023-03-18T03:14:39.279Z,62.58
2023-03-18T03:17:07.251Z,64.00
2023-03-18T03:19:33.995Z,67.89
2023-03-18T03:22:01.616Z,70.80
2023-03-18T03:24:28.904Z,63.57
2023-03-18T03:26:55.742Z,63.60
2023-03-18T03:29:22.920Z,64.28
2023-03-18T03:31:49.788Z,61.04
2023-03-18T03:34:16.570Z,58.02
2023-03-18T03:36:43.847Z,63.31
2023-03-18T03:39:10.769Z,58.96
2023-03-18T03:41:37.850Z,65.07
2023-03-18T03:44:04.992Z,60.57
2023-03-18T03:46:32.190Z,64.02
2023-03-18T03:48:59.509Z,65.10
2023-03-18T03:51:26.561Z,59.98
2023-03-18T03:53:54.110Z,66.35
2023-03-18T03:56:20.996Z,68.31
2023-03-18T03:58:47.817Z,66.96
2023-03-18T04:01:14.804Z,65.11
2023-03-18T04:03:44.468Z,70.20
2023-03-18T04:06:12.616Z,66.44
2023-03-18T04:08:46.287Z,64.15
2023-03-18T04:11:13.953Z,60.03
2023-03-18T04:13:41.894Z,57.79
2023-03-18T04:16:08.692Z,62.50
2023-03-18T04:18:35.672Z,69.39
2023-03-18T04:21:04.184Z,69.33
2023-03-18T04:23:44.845Z,61.48
2023-03-18T04:26:13.247Z,65.91
2023-03-18T04:28:40.612Z,67.97
2023-03-18T04:31:09.929Z,64.61
2023-03-18T04:33:37.084Z,61.58
2023-03-18T04:36:04.061Z,64.89
2023-03-18T04:38:30.812Z,61.99
2023-03-18T04:40:58.813Z,66.32
2023-03-18T04:43:25.786Z,62.07
2023-03-18T04:45:53.612Z,66.49
2023-03-18T04:48:21.561Z,68.21
2023-03-18T04:50:48.478Z,68.13
2023-03-18T04:53:20.694Z,66.18
2023-03-18T04:55:50.803Z,60.59
2023-03-18T04:58:19.717Z,63.22
2023-03-18T05:00:59.428Z,65.34
2023-03-18T05:03:33.641Z,64.17
2023-03-18T05:06:00.934Z,63.33
2023-03-18T05:08:37.555Z,64.50
2023-03-18T05:11:04.502Z,60.66
2023-03-18T05:13:33.064Z,65.24
2023-03-18T05:16:00.258Z,67.16
2023-03-18T05:18:27.333Z,65.99
2023-03-18T05:20:56.481Z,67.81
2023-03-18T05:23:24.945Z,61.97
2023-03-18T05:25:55.383Z,66.19
2023-03-18T05:28:24.675Z,65.79
2023-03-18T05:31:08.036Z,64.14
2023-03-18T05:33:39.314Z,64.41
2023-03-18T05:36:06.507Z,61.46
2023-03-18T05:38:39.558Z,59.79
2023-03-18T05:41:06.363Z,60.02
2023-03-18T05:43:38.010Z,62.40
2023-03-18T05:46:06.024Z,65.00
2023-03-18T05:48:46.241Z,65.66
2023-03-18T05:51:13.950Z,65.33
2023-03-18T05:53:41.161Z,65.05
2023-03-18T05:56:19.642Z,62.51
2023-03-18T05:58:51.190Z,62.32
2023-03-18T06:01:27.509Z,58.55
2023-03-18T06:03:55.223Z,59.06
2023-03-18T06:06:22.352Z,57.27
2023-03-18T06:08:49.166Z,61.20
2023-03-18T06:11:17.095Z,61.42
2023-03-18T06:13:45.528Z,60.62
2023-03-18T06:16:12.962Z,63.61
2023-03-18T06:18:40.643Z,64.97
2023-03-18T06:21:10.000Z,65.50
2023-03-18T06:23:37.734Z,65.98
2023-03-18T06:26:07.187Z,60.28
2023-03-18T06:28:39.374Z,56.80
2023-03-18T06:31:10.870Z,54.72
2023-03-18T06:33:38.527Z,56.87
2023-03-18T06:36:08.422Z,55.50
2023-03-18T06:38:35.148Z,54.29
2023-03-18T06:41:02.717Z,53.93
2023-03-18T06:43:35.472Z,52.42
2023-03-18T06:46:02.861Z,55.37
2023-03-18T06:48:32.711Z,57.20
2023-03-18T06:50:59.763Z,54.79
2023-03-18T06:53:31.985Z,54.56
2023-03-18T06:55:59.743Z,51.76
2023-03-18T06:58:34.065Z,53.32
2023-03-18T07:01:08.475Z,51.70
2023-03-18T07:03:40.823Z,56.23
2023-03-18T07:06:10.383Z,52.46
2023-03-18T07:08:38.915Z,50.62
2023-03-18T07:11:07.315Z,48.86
2023-03-18T07:13:36.580Z,48.66
2023-03-18T07:16:06.527Z,53.32
2023-03-18T07:18:33.650Z,51.88
2023-03-18T07:21:01.418Z,51.66
2023-03-18T07:23:28.859Z,49.97
2023-03-18T07:25:57.552Z,52.88
2023-03-18T07:28:25.327Z,52.86
2023-03-18T07:30:54.187Z,48.51
2023-03-18T07:33:21.212Z,47.44
2023-03-18T07:35:48.438Z,51.48
2023-03-18T07:38:15.550Z,53.59
2023-03-18T07:40:42.930Z,51.52
2023-03-18T07:43:10.033Z,50.66
2023-03-18T07:45:37.286Z,50.09
2023-03-18T07:48:04.296Z,47.86
2023-03-18T07:50:32.695Z,46.82
2023-03-18T07:53:00.751Z,45.21
2023-03-18T07:55:27.508Z,44.33
2023-03-18T07:57:54.675Z,43.22
2023-03-18T08:00:22.334Z,44.63
2023-03-18T08:02:49.138Z,43.64
2023-03-18T08:05:16.965Z,42.91
2023-03-18T08:07:44.030Z,44.20
2023-03-18T08:10:12.061Z,44.29
2023-03-18T08:12:52.123Z,44.00
2023-03-18T08:15:20.448Z,45.50
2023-03-18T08:17:47.532Z,42.37
2023-03-18T08:20:15.733Z,44.00
2023-03-18T08:22:42.611Z,41.80
2023-03-18T08:25:09.985Z,43.12
2023-03-18T08:27:36.816Z,41.95
2023-03-18T08:30:04.477Z,38.66
2023-03-18T08:32:32.585Z,39.00
2023-03-18T08:34:59.626Z,40.29
2023-03-18T08:37:27.884Z,39.43
2023-03-18T08:39:55.120Z,38.76
2023-03-18T08:42:21.847Z,38.94
2023-03-18T08:44:48.953Z,35.90
2023-03-18T08:47:16.428Z,37.29
2023-03-18T08:49:43.216Z,39.30
2023-03-18T08:52:10.875Z,35.04
2023-03-18T08:54:37.611Z,36.51
2023-03-18T08:57:04.397Z,33.55
2023-03-18T08:59:32.361Z,34.24
2023-03-18T09:01:59.347Z,33.61
2023-03-18T09:04:26.455Z,33.63
2023-03-18T09:06:53.462Z,34.43
2023-03-18T09:09:21.510Z,34.32
2023-03-18T09:11:49.880Z,35.77
2023-03-18T09:14:17.096Z,33.05
2023-03-18T09:16:43.897Z,31.78
2023-03-18T09:19:10.752Z,32.01
2023-03-18T09:21:37.751Z,34.82
2023-03-18T09:24:07.098Z,31.19
2023-03-18T09:26:34.236Z,31.98
2023-03-18T09:29:02.020Z,29.78
2023-03-18T09:31:28.764Z,29.84
2023-03-18T09:33:55.801Z,29.83
2023-03-18T09:36:23.278Z,28.46
2023-03-18T09:38:50.041Z,28.65
2023-03-18T09:41:33.494Z,27.51
2023-03-18T09:44:15.140Z,27.57
2023-03-18T09:47:18.832Z,27.65
2023-03-18T09:50:17.462Z,26.41
2023-03-18T09:52:48.693Z,27.88
2023-03-18T09:55:27.368Z,29.31
2023-03-18T09:58:01.846Z,27.48
2023-03-18T10:00:34.104Z,26.02
2023-03-18T10:03:10.988Z,25.39
2023-03-18T10:05:48.672Z,26.06
2023-03-18T10:08:35.209Z,26.74
2023-03-18T10:11:11.772Z,23.10
2023-03-18T10:13:48.727Z,25.05
2023-03-18T10:16:23.581Z,26.25
2023-03-18T10:18:50.732Z,25.69
2023-03-18T10:21:29.538Z,23.84
2023-03-18T10:24:17.945Z,24.37
2023-03-18T10:26:52.504Z,22.90
2023-03-18T10:29:43.853Z,22.39
2023-03-18T10:32:48.675Z,22.03
2023-03-18T10:35:45.671Z,25.22
2023-03-18T10:38:34.245Z,24.25
2023-03-18T10:41:02.638Z,24.67
2023-03-18T10:43:32.466Z,24.60
2023-03-18T10:46:03.975Z,23.51
2023-03-18T10:48:39.685Z,23.90
2023-03-18T10:51:15.964Z,22.57
2023-03-18T10:53:53.078Z,22.34
2023-03-18T10:56:19.811Z,23.93
2023-03-18T10:58:47.553Z,24.83
2023-03-18T11:01:20.600Z,23.64
2023-03-18T11:03:55.128Z,23.80
2023-03-18T11:06:32.640Z,22.03
2023-03-18T11:09:08.577Z,22.46
2023-03-18T11:11:36.140Z,22.13
2023-03-18T11:14:05.581Z,21.54
2023-03-18T11:16:51.977Z,21.28
2023-03-18T11:19:29.211Z,21.51
2023-03-18T11:22:10.257Z,21.35
2023-03-18T11:24:45.048Z,23.58
2023-03-18T11:27:14.499Z,21.57
2023-03-18T11:29:50.781Z,21.91
2023-03-18T11:32:34.752Z,21.05
2023-03-18T11:35:04.522Z,21.28
2023-03-18T11:37:40.868Z,22.73
2023-03-18T11:40:13.430Z,20.78
2023-03-18T11:42:41.985Z,20.67
2023-03-18T11:45:33.011Z,21.75
2023-03-18T11:48:00.757Z,22.34
2023-03-18T11:50:44.947Z,20.14
2023-03-18T11:54:04.438Z,21.40
2023-03-18T11:56:44.915Z,21.45
2023-03-18T11:59:35.570Z,21.56
2023-03-18T12:02:27.008Z,23.49
2023-03-18T12:05:19.996Z,21.29
2023-03-18T12:08:12.015Z,21.55
2023-03-18T12:10:49.314Z,22.32
2023-03-18T12:13:15.964Z,22.47
2023-03-18T12:16:01.921Z,22.12
2023-03-18T12:18:38.227Z,22.17
2023-03-18T12:21:52.860Z,20.71
2023-03-18T12:24:25.978Z,22.30
2023-03-18T12:27:11.017Z,21.89
2023-03-18T12:30:25.170Z,22.82
2023-03-18T12:33:10.634Z,20.44
2023-03-18T12:36:05.405Z,22.12
2023-03-18T12:38:45.327Z,23.13
2023-03-18T12:41:36.066Z,21.49
2023-03-18T12:44:12.308Z,18.95
2023-03-18T12:46:56.404Z,19.81
2023-03-18T12:49:31.382Z,19.25
2023-03-18T12:52:24.469Z,21.79
2023-03-18T12:55:01.256Z,19.49
2023-03-18T12:57:28.839Z,19.38
2023-03-18T13:00:02.244Z,18.20
2023-03-18T13:02:59.348Z,19.70
2023-03-18T13:05:47.333Z,20.38
2023-03-18T13:08:46.496Z,25.22
2023-03-18T13:11:51.010Z,23.15
2023-03-18T13:14:26.238Z,21.78
2023-03-18T13:16:55.385Z,22.85
2023-03-18T13:19:22.170Z,21.58
2023-03-18T13:21:56.732Z,21.16
2023-03-18T13:24:33.662Z,22.19
2023-03-18T13:27:37.419Z,21.19
2023-03-18T13:30:23.906Z,22.16
2023-03-18T13:33:10.084Z,23.54
2023-03-18T13:35:43.775Z,24.76
2023-03-18T13:38:23.300Z,22.87
2023-03-18T13:40:59.436Z,23.72
2023-03-18T13:43:29.012Z,23.30
2023-03-18T13:45:58.396Z,22.68
2023-03-18T13:48:34.337Z,21.64
2023-03-18T13:51:20.675Z,21.85
2023-03-18T13:53:50.691Z,22.94
2023-03-18T13:56:30.010Z,22.55
2023-03-18T13:58:56.913Z,24.59
2023-03-18T14:01:36.426Z,23.32
2023-03-18T14:04:32.220Z,22.74
2023-03-18T14:07:08.789Z,23.78
2023-03-18T14:09:46.465Z,24.07
2023-03-18T14:12:20.862Z,24.12
2023-03-18T14:14:51.441Z,23.54
2023-03-18T14:17:35.157Z,27.60
2023-03-18T14:20:18.110Z,23.56
2023-03-18T14:22:47.165Z,23.59
2023-03-18T14:25:13.847Z,24.55
2023-03-18T14:27:53.640Z,24.67
2023-03-18T14:30:29.875Z,27.37
2023-03-18T14:33:05.925Z,24.25
2023-03-18T14:35:49.977Z,25.04
2023-03-18T14:38:26.080Z,26.00
2023-03-18T14:40:55.965Z,25.20
2023-03-18T14:43:28.638Z,24.81
2023-03-18T14:46:00.251Z,25.58
2023-03-18T14:48:30.565Z,25.21
2023-03-18T14:51:21.925Z,26.63
2023-03-18T14:54:14.819Z,25.53
2023-03-18T14:56:42.931Z,25.39
2023-03-18T14:59:15.831Z,26.31
2023-03-18T15:01:51.014Z,27.68
2023-03-18T15:04:24.917Z,26.57
2023-03-18T15:06:54.104Z,28.10
2023-03-18T15:09:27.291Z,25.48
2023-03-18T15:11:54.814Z,25.20
2023-03-18T15:14:27.909Z,24.74
2023-03-18T15:17:12.237Z,26.34
2023-03-18T15:19:39.007Z,26.99
2023-03-18T15:22:07.464Z,27.28
2023-03-18T15:24:35.760Z,26.93
2023-03-18T15:27:22.876Z,28.25
2023-03-18T15:29:54.675Z,26.77
2023-03-18T15:32:26.547Z,26.22
2023-03-18T15:35:06.759Z,25.32
2023-03-18T15:37:36.600Z,25.39
2023-03-18T15:40:16.936Z,25.64
2023-03-18T15:42:45.401Z,26.62
2023-03-18T15:45:20.607Z,26.94
2023-03-18T15:47:48.181Z,27.26
2023-03-18T15:50:26.328Z,27.89
2023-03-18T15:53:22.871Z,28.31
2023-03-18T15:55:55.824Z,29.92
2023-03-18T15:58:27.227Z,29.73
2023-03-18T16:00:56.502Z,29.74
2023-03-18T16:03:26.692Z,29.85
2023-03-18T16:05:53.906Z,30.10
2023-03-18T16:08:22.991Z,30.46
2023-03-18T16:10:52.660Z,30.12
2023-03-18T16:13:26.905Z,30.32
2023-03-18T16:15:54.081Z,30.93
2023-03-18T16:18:22.797Z,30.15
2023-03-18T16:20:50.805Z,31.41
2023-03-18T16:23:18.755Z,29.94
2023-03-18T16:25:56.315Z,30.99
2023-03-18T16:28:28.491Z,31.21
2023-03-18T16:30:58.373Z,32.05
2023-03-18T16:33:25.195Z,30.80
2023-03-18T16:36:00.882Z,30.68
2023-03-18T16:38:31.563Z,30.79
2023-03-18T16:40:58.477Z,31.45
2023-03-18T16:43:31.282Z,31.68
2023-03-18T16:46:01.330Z,32.12
2023-03-18T16:48:28.617Z,31.73
2023-03-18T16:50:57.420Z,30.30
2023-03-18T16:53:27.587Z,31.34
2023-03-18T16:56:16.030Z,30.66
2023-03-18T16:58:44.626Z,31.10
2023-03-18T17:01:16.619Z,32.87
2023-03-18T17:03:44.283Z,33.21
2023-03-18T17:06:12.648Z,33.41
2023-03-18T17:08:40.105Z,34.97
2023-03-18T17:11:07.688Z,35.24
2023-03-18T17:13:38.171Z,35.48
2023-03-18T17:16:07.121Z,35.21
2023-03-18T17:18:33.835Z,34.98
2023-03-18T17:21:00.799Z,35.07
2023-03-18T17:23:28.719Z,36.71
2023-03-18T17:25:59.684Z,39.33
2023-03-18T17:28:44.726Z,41.30
2023-03-18T17:31:13.141Z,40.23
2023-03-18T17:33:39.955Z,41.56
2023-03-18T17:36:08.729Z,42.26
2023-03-18T17:38:35.688Z,44.23
2023-03-18T17:41:10.833Z,41.97
2023-03-18T17:43:38.213Z,41.45
2023-03-18T17:46:06.719Z,41.85
2023-03-18T17:48:35.316Z,43.03
2023-03-18T17:51:07.647Z,44.49
2023-03-18T17:53:40.629Z,45.55
2023-03-18T17:56:11.606Z,44.88
2023-03-18T17:58:43.269Z,45.75
2023-03-18T18:01:23.485Z,46.98
2023-03-18T18:03:53.612Z,47.84
2023-03-18T18:06:34.080Z,45.76
2023-03-18T18:09:01.328Z,43.97
2023-03-18T18:11:33.322Z,44.50
2023-03-18T18:14:19.445Z,45.92
2023-03-18T18:16:48.130Z,46.58
2023-03-18T18:19:16.296Z,48.53
2023-03-18T18:21:48.054Z,47.33
2023-03-18T18:24:23.495Z,46.17
2023-03-18T18:26:51.796Z,45.88
2023-03-18T18:29:24.582Z,46.85
2023-03-18T18:31:52.399Z,45.00
2023-03-18T18:34:21.893Z,44.87
2023-03-18T18:36:55.978Z,47.71
2023-03-18T18:39:23.792Z,46.70
2023-03-18T18:41:51.301Z,48.72
2023-03-18T18:44:19.245Z,47.09
2023-03-18T18:46:46.398Z,46.14
2023-03-18T18:49:23.813Z,46.62
2023-03-18T18:51:55.840Z,48.02
2023-03-18T18:54:24.319Z,49.53
2023-03-18T18:56:52.385Z,50.64
2023-03-18T18:59:23.445Z,46.17
2023-03-18T19:01:55.481Z,47.63
2023-03-18T19:04:24.051Z,46.43
2023-03-18T19:06:55.332Z,50.77
2023-03-18T19:09:24.462Z,48.89
2023-03-18T19:11:55.361Z,50.61
2023-03-18T19:14:27.341Z,47.71
2023-03-18T19:16:59.130Z,49.94
2023-03-18T19:19:32.510Z,48.70
2023-03-18T19:21:59.254Z,47.62
2023-03-18T19:24:27.640Z,46.61
2023-03-18T19:26:55.896Z,49.06
2023-03-18T19:29:24.275Z,46.76
2023-03-18T19:31:51.470Z,46.47
2023-03-18T19:34:20.156Z,50.60
2023-03-18T19:36:55.987Z,50.61
2023-03-18T19:39:23.566Z,50.20
2023-03-18T19:41:51.811Z,52.90
2023-03-18T19:44:26.128Z,48.90
2023-03-18T19:46:59.280Z,50.96
2023-03-18T19:49:35.190Z,51.50
2023-03-18T19:52:03.712Z,50.22
2023-03-18T19:54:32.383Z,49.67
2023-03-18T19:57:05.744Z,49.73
2023-03-18T19:59:39.239Z,49.96
2023-03-18T20:02:34.577Z,47.97
2023-03-18T20:05:04.909Z,52.04
2023-03-18T20:07:33.260Z,50.03
2023-03-18T20:10:00.179Z,52.71
2023-03-18T20:12:42.151Z,51.37
2023-03-18T20:15:21.003Z,48.16
2023-03-18T20:17:49.987Z,55.25
2023-03-18T20:20:26.418Z,50.66
2023-03-18T20:23:12.285Z,49.63
2023-03-18T20:25:43.857Z,49.22
2023-03-18T20:28:17.548Z,49.09
2023-03-18T20:30:46.165Z,57.40
2023-03-18T20:33:14.002Z,49.42
2023-03-18T20:35:43.907Z,52.32
2023-03-18T20:38:28.917Z,54.54
2023-03-18T20:40:55.853Z,52.16
2023-03-18T20:43:25.858Z,52.85
2023-03-18T20:45:54.117Z,51.64
2023-03-18T20:48:22.515Z,49.90
2023-03-18T20:50:50.763Z,55.25
2023-03-18T20:53:25.791Z,54.01
2023-03-18T20:55:54.638Z,50.39
2023-03-18T20:58:28.214Z,56.06
2023-03-18T21:00:56.795Z,49.78
2023-03-18T21:03:29.613Z,50.78
2023-03-18T21:05:58.798Z,50.87
2023-03-18T21:08:27.905Z,48.99
2023-03-18T21:10:58.996Z,50.00
2023-03-18T21:13:45.811Z,60.64
2023-03-18T21:16:15.388Z,57.14
2023-03-18T21:18:45.644Z,55.52
2023-03-18T21:21:26.714Z,49.92
2023-03-18T21:23:55.756Z,50.25
2023-03-18T21:26:24.801Z,53.91
2023-03-18T21:28:53.009Z,49.56
2023-03-18T21:31:24.826Z,49.99
2023-03-18T21:33:53.210Z,48.63
2023-03-18T21:36:20.652Z,48.46
2023-03-18T21:38:47.518Z,49.65
2023-03-18T21:41:29.957Z,50.57
2023-03-18T21:43:58.051Z,49.78
2023-03-18T21:46:27.324Z,50.24
2023-03-18T21:48:55.646Z,51.07
2023-03-18T21:51:38.161Z,52.02
2023-03-18T21:54:16.621Z,50.41
2023-03-18T21:56:43.364Z,50.30
2023-03-18T21:59:10.763Z,50.32
2023-03-18T22:01:37.631Z,50.54
2023-03-18T22:04:05.162Z,52.05
2023-03-18T22:06:32.025Z,53.54
2023-03-18T22:08:58.836Z,51.95
2023-03-18T22:11:26.269Z,50.03
2023-03-18T22:13:54.797Z,49.28
2023-03-18T22:16:22.014Z,55.37
2023-03-18T22:18:48.785Z,57.88
2023-03-18T22:21:24.718Z,58.28
2023-03-18T22:23:52.114Z,58.44
2023-03-18T22:26:20.130Z,56.55
2023-03-18T22:28:47.983Z,44.22
2023-03-18T22:31:26.963Z,52.07
2023-03-18T22:33:55.948Z,52.02
2023-03-18T22:36:23.809Z,50.53
2023-03-18T22:38:50.982Z,49.46
2023-03-18T22:41:21.405Z,49.47
2023-03-18T22:43:48.979Z,48.42
2023-03-18T22:46:16.257Z,51.01
2023-03-18T22:48:43.500Z,59.34
2023-03-18T22:51:22.133Z,56.24
2023-03-18T22:53:51.847Z,53.22
2023-03-18T22:56:19.415Z,55.02
2023-03-18T22:58:46.433Z,58.95
2023-03-18T23:01:19.140Z,56.29
2023-03-18T23:03:47.415Z,63.15
2023-03-18T23:06:16.980Z,56.03
2023-03-18T23:08:45.690Z,55.65
2023-03-18T23:11:13.520Z,60.27
2023-03-18T23:13:47.479Z,54.54
2023-03-18T23:16:17.004Z,55.19
2023-03-18T23:18:44.234Z,51.49
2023-03-18T23:21:16.990Z,50.00
2023-03-18T23:23:43.951Z,51.11
2023-03-18T23:26:11.519Z,49.80
2023-03-18T23:28:44.572Z,48.62
2023-03-18T23:31:13.872Z,47.89
2023-03-18T23:33:41.304Z,48.91
2023-03-18T23:36:08.915Z,49.13
2023-03-18T23:38:37.694Z,47.98
2023-03-18T23:41:04.665Z,49.08
2023-03-18T23:43:31.515Z,50.63
2023-03-18T23:45:58.402Z,50.69
2023-03-18T23:48:25.768Z,50.09
2023-03-18T23:50:52.636Z,50.66
2023-03-18T23:53:19.647Z,54.83
2023-03-18T23:55:48.869Z,54.92
2023-03-18T23:58:16.204Z,59.40
